Time;durP1;ratioP1;P1;durP2;ratioP2;P2;SDS_P1;SDS_P2;PMS_P1;PMS_P2;Temp;Humidity;BMP_temperature;BMP_pressure;BME280_temperature;BME280_humidity;BME280_pressure;Samples;Min_cycle;Max_cycle;Signal;HPM_P1;HPM_P2
2021/08/08 00:02:15;;;;;;;2.40;0.90;;;16.10;1.00;;;;;;5047391;28;21091;-63
2021/08/08 00:04:41;;;;;;;4.00;1.23;;;16.20;1.00;;;;;;5031521;28;20284;-63
2021/08/08 00:07:08;;;;;;;4.07;1.40;;;16.10;1.00;;;;;;5031903;28;20564;-63
2021/08/08 00:09:35;;;;;;;3.97;1.50;;;16.10;1.00;;;;;;5031920;28;20234;-63
2021/08/08 00:12:02;;;;;;;4.67;1.67;;;16.00;1.00;;;;;;5031295;28;20228;-63
2021/08/08 00:14:29;;;;;;;1.97;1.13;;;15.90;3.10;;;;;;5031449;28;20336;-64
2021/08/08 00:16:56;;;;;;;4.43;1.50;;;15.80;99.90;;;;;;5031691;28;20628;-63
2021/08/08 00:19:24;;;;;;;7.37;1.80;;;15.70;99.90;;;;;;5030127;28;20206;-64
2021/08/08 00:21:50;;;;;;;1.90;1.27;;;15.70;99.90;;;;;;5031549;28;20674;-64
2021/08/08 00:24:17;;;;;;;2.23;1.50;;;15.60;1.00;;;;;;5031413;28;20272;-63
2021/08/08 00:26:44;;;;;;;3.30;1.50;;;15.60;1.00;;;;;;5030808;28;20268;-64
2021/08/08 00:29:10;;;;;;;4.27;1.67;;;15.60;1.00;;;;;;5031643;28;20622;-63
2021/08/08 00:31:37;;;;;;;1.80;1.40;;;15.60;99.90;;;;;;5031440;28;20264;-64
2021/08/08 00:34:04;;;;;;;2.83;1.47;;;15.60;99.90;;;;;;5032438;28;20198;-64
2021/08/08 00:36:33;;;;;;;2.33;1.50;;;15.60;99.90;;;;;;5039166;28;20198;-64
2021/08/08 00:39:00;;;;;;;3.93;1.30;;;15.60;99.90;;;;;;5031132;28;20210;-64
2021/08/08 00:41:27;;;;;;;6.77;1.50;;;15.60;99.90;;;;;;5031574;28;20226;-64
2021/08/08 00:43:53;;;;;;;4.00;1.13;;;15.60;99.90;;;;;;5035426;28;20305;-64
2021/08/08 00:46:20;;;;;;;3.00;1.50;;;15.60;99.90;;;;;;5035224;28;20210;-64
2021/08/08 00:48:47;;;;;;;4.30;1.43;;;15.60;99.90;;;;;;5035175;28;20202;-63
2021/08/08 00:51:13;;;;;;;3.53;1.40;;;15.60;1.00;;;;;;5035225;28;20229;-64
2021/08/08 00:53:41;;;;;;;3.37;1.50;;;15.60;18.50;;;;;;5033381;28;20206;-64
2021/08/08 00:56:08;;;;;;;4.20;1.60;;;15.60;99.90;;;;;;5034933;28;20675;-64
2021/08/08 00:58:34;;;;;;;1.93;1.40;;;15.60;1.00;;;;;;5034885;28;20214;-64
2021/08/08 01:01:03;;;;;;;4.27;1.30;;;15.70;99.90;;;;;;5035128;28;20249;-63
2021/08/08 01:03:30;;;;;;;2.03;1.40;;;15.70;99.90;;;;;;5034797;28;20226;-63
2021/08/08 01:06:03;;;;;;;2.67;1.50;;;15.70;58.00;;;;;;5034985;28;20259;-64
2021/08/08 01:08:31;;;;;;;5.43;1.70;;;15.80;1.00;;;;;;5035210;28;20268;-62
2021/08/08 01:11:00;;;;;;;3.73;1.50;;;15.80;1.00;;;;;;5034007;28;20288;-64
2021/08/08 01:13:27;;;;;;;3.97;2.47;;;15.80;1.00;;;;;;5035061;28;20280;-63
2021/08/08 01:15:54;;;;;;;4.63;1.63;;;15.80;1.00;;;;;;5034873;28;20647;-64
2021/08/08 01:18:21;;;;;;;5.90;1.70;;;15.80;99.90;;;;;;5034911;28;20237;-63
2021/08/08 01:20:50;;;;;;;3.00;1.70;;;15.80;99.90;;;;;;5034220;28;20222;-63
2021/08/08 01:23:18;;;;;;;3.87;1.67;;;15.80;99.90;;;;;;5034686;28;20724;-64
2021/08/08 01:25:47;;;;;;;4.77;2.17;;;15.90;99.90;;;;;;5033311;28;20622;-64
2021/08/08 01:28:15;;;;;;;6.10;2.00;;;15.80;99.90;;;;;;5034414;28;20671;-63
2021/08/08 01:30:42;;;;;;;3.93;2.10;;;15.90;99.90;;;;;;5034027;28;20234;-63
2021/08/08 01:33:10;;;;;;;4.60;2.10;;;15.90;99.90;;;;;;5034399;28;20728;-62
2021/08/08 01:35:37;;;;;;;5.30;2.03;;;15.90;99.90;;;;;;5034481;28;20210;-63
2021/08/08 01:38:04;;;;;;;3.73;2.33;;;15.90;87.70;;;;;;5034579;28;20260;-63
2021/08/08 01:40:35;;;;;;;3.73;2.10;;;15.90;51.10;;;;;;5034208;28;20283;-63
2021/08/08 01:43:08;;;;;;;3.57;2.43;;;15.90;30.00;;;;;;5032791;28;20210;-62
2021/08/08 01:45:38;;;;;;;3.37;2.17;;;15.90;35.30;;;;;;5034045;28;20210;-63
2021/08/08 01:48:08;;;;;;;6.93;2.50;;;15.90;17.90;;;;;;5034407;28;20260;-63
2021/08/08 01:50:35;;;;;;;4.97;1.90;;;15.90;7.70;;;;;;5033998;28;20230;-63
2021/08/08 01:53:02;;;;;;;2.67;2.10;;;15.90;7.80;;;;;;5033650;28;20210;-63
2021/08/08 01:55:30;;;;;;;6.13;2.73;;;15.90;7.70;;;;;;5033793;28;20642;-63
2021/08/08 01:57:58;;;;;;;4.43;2.23;;;15.90;7.70;;;;;;5033989;28;20755;-63
2021/08/08 02:00:27;;;;;;;5.67;2.23;;;15.90;8.20;;;;;;5032499;28;20722;-63
2021/08/08 02:02:56;;;;;;;7.90;2.57;;;15.90;3.70;;;;;;5034039;28;20206;-63
2021/08/08 02:05:24;;;;;;;4.80;2.57;;;15.90;1.00;;;;;;5033880;28;20285;-63
2021/08/08 02:07:50;;;;;;;5.10;2.73;;;15.90;1.00;;;;;;5033822;28;20210;-63
2021/08/08 02:10:18;;;;;;;4.83;2.23;;;15.90;1.00;;;;;;5033512;28;20280;-63
2021/08/08 02:12:44;;;;;;;3.73;2.40;;;15.90;1.00;;;;;;5033452;28;20210;-63
2021/08/08 02:15:12;;;;;;;5.60;2.43;;;15.90;1.00;;;;;;5033701;28;20206;-63
2021/08/08 02:17:42;;;;;;;7.37;2.97;;;15.90;1.00;;;;;;5033800;28;20211;-63
2021/08/08 02:20:11;;;;;;;6.43;2.60;;;15.90;1.00;;;;;;5033641;28;20639;-64
2021/08/08 02:22:39;;;;;;;4.60;2.50;;;15.90;1.00;;;;;;5033396;28;20241;-64
2021/08/08 02:25:06;;;;;;;4.33;2.20;;;15.90;1.00;;;;;;5033339;28;20272;-64
2021/08/08 02:27:33;;;;;;;4.13;2.10;;;15.90;1.00;;;;;;5033455;28;20214;-64
2021/08/08 02:30:00;;;;;;;8.23;2.87;;;15.90;1.00;;;;;;5033388;28;20230;-63
2021/08/08 02:32:26;;;;;;;6.43;2.50;;;15.90;1.00;;;;;;5033318;28;20206;-64
2021/08/08 02:34:54;;;;;;;6.17;2.67;;;15.90;1.00;;;;;;5033235;28;20202;-63
2021/08/08 02:37:21;;;;;;;3.33;2.00;;;15.90;1.00;;;;;;5033190;28;20218;-64
2021/08/08 02:39:48;;;;;;;5.53;2.43;;;15.90;1.00;;;;;;5033005;28;20284;-63
2021/08/08 02:42:14;;;;;;;11.20;2.57;;;15.90;1.00;;;;;;5033010;28;20202;-64
2021/08/08 02:44:41;;;;;;;5.07;2.47;;;15.90;1.00;;;;;;5033023;28;20234;-63
2021/08/08 02:47:07;;;;;;;10.57;2.77;;;15.90;1.00;;;;;;5033078;28;20210;-63
2021/08/08 02:49:34;;;;;;;6.83;2.43;;;15.80;1.00;;;;;;5032997;28;20230;-63
2021/08/08 02:52:02;;;;;;;7.63;2.33;;;15.80;1.00;;;;;;5032768;28;20276;-63
2021/08/08 02:54:29;;;;;;;7.80;2.40;;;15.80;1.00;;;;;;5032696;28;20206;-64
2021/08/08 02:56:56;;;;;;;6.83;2.70;;;15.80;1.00;;;;;;5033028;28;20684;-64
2021/08/08 02:59:22;;;;;;;9.00;2.30;;;15.80;1.00;;;;;;5032767;28;20671;-63
2021/08/08 03:01:49;;;;;;;13.80;2.60;;;15.80;1.00;;;;;;5032702;28;20260;-63
2021/08/08 03:04:16;;;;;;;7.97;2.40;;;15.80;1.00;;;;;;5032646;28;20218;-64
2021/08/08 03:06:45;;;;;;;5.80;2.40;;;15.80;1.00;;;;;;5031620;28;20616;-64
2021/08/08 03:09:14;;;;;;;5.80;2.67;;;15.80;1.00;;;;;;5032540;28;20210;-64
2021/08/08 03:11:45;;;;;;;8.73;2.60;;;15.80;1.00;;;;;;5032503;28;20292;-63
2021/08/08 03:14:12;;;;;;;5.97;2.37;;;15.80;1.00;;;;;;5032523;28;20686;-63
2021/08/08 03:16:39;;;;;;;5.57;2.40;;;15.80;1.00;;;;;;5032477;28;20248;-64
2021/08/08 03:19:05;;;;;;;6.73;2.43;;;15.80;1.00;;;;;;5032577;28;20214;-64
2021/08/08 03:21:32;;;;;;;5.90;2.33;;;15.80;1.00;;;;;;5032070;28;20226;-64
2021/08/08 03:23:59;;;;;;;6.07;2.80;;;15.80;1.00;;;;;;5032396;28;20572;-63
2021/08/08 03:26:27;;;;;;;4.87;2.43;;;15.80;1.00;;;;;;5032405;28;20261;-64
2021/08/08 03:28:53;;;;;;;6.73;2.60;;;15.80;1.00;;;;;;5032250;28;20675;-64
2021/08/08 03:31:20;;;;;;;6.37;2.53;;;15.80;1.00;;;;;;5032174;28;20229;-62
2021/08/08 03:33:46;;;;;;;4.80;2.60;;;15.70;1.00;;;;;;5032061;28;20214;-62
2021/08/08 03:36:13;;;;;;;6.77;2.43;;;15.70;1.00;;;;;;5032100;28;20210;-63
2021/08/08 03:38:40;;;;;;;10.00;2.87;;;15.80;1.00;;;;;;5032400;28;20264;-64
2021/08/08 03:41:07;;;;;;;6.50;2.50;;;15.70;1.00;;;;;;5032198;28;20261;-62
2021/08/08 03:43:35;;;;;;;7.87;3.10;;;15.70;1.00;;;;;;5032332;28;20276;-61
2021/08/08 03:46:01;;;;;;;10.47;2.60;;;15.70;1.00;;;;;;5032834;28;20214;-62
2021/08/08 03:48:28;;;;;;;8.73;3.13;;;15.70;1.00;;;;;;5032335;28;20548;-64
2021/08/08 03:50:54;;;;;;;10.43;2.63;;;15.70;1.00;;;;;;5031981;28;20230;-64
2021/08/08 03:53:21;;;;;;;8.80;2.93;;;15.70;1.00;;;;;;5032726;28;20232;-64
2021/08/08 03:55:48;;;;;;;5.83;2.57;;;15.70;1.00;;;;;;5032561;28;20260;-64
2021/08/08 03:58:14;;;;;;;9.27;2.63;;;15.70;1.00;;;;;;5032300;28;20256;-64
2021/08/08 04:00:42;;;;;;;8.17;3.30;;;15.60;1.00;;;;;;5031667;28;20292;-64
2021/08/08 04:03:09;;;;;;;10.30;2.90;;;15.60;1.00;;;;;;5031603;28;20214;-65
2021/08/08 04:05:36;;;;;;;14.33;3.50;;;15.60;1.00;;;;;;5031881;28;20321;-67
2021/08/08 04:08:02;;;;;;;12.83;2.80;;;15.60;1.00;;;;;;5044054;28;20550;-64
2021/08/08 04:10:29;;;;;;;6.00;2.67;;;15.60;1.00;;;;;;5051672;28;20275;-64
2021/08/08 04:12:56;;;;;;;8.47;3.10;;;15.60;1.00;;;;;;5051212;28;20790;-64
2021/08/08 04:15:23;;;;;;;9.77;2.43;;;15.50;1.00;;;;;;5051475;28;20197;-64
2021/08/08 04:17:51;;;;;;;9.73;2.70;;;15.50;1.00;;;;;;5050929;28;20212;-64
2021/08/08 04:20:18;;;;;;;9.63;2.87;;;15.50;1.00;;;;;;5051658;28;20302;-62
2021/08/08 04:22:44;;;;;;;11.13;3.40;;;15.50;1.00;;;;;;5051412;28;20205;-62
2021/08/08 04:25:11;;;;;;;10.17;3.57;;;15.50;1.00;;;;;;5030355;28;20651;-62
2021/08/08 04:27:38;;;;;;;8.47;3.23;;;15.50;1.00;;;;;;5031374;28;20267;-62
2021/08/08 04:30:05;;;;;;;6.30;2.70;;;15.50;1.00;;;;;;5031416;28;20276;-61
2021/08/08 04:32:32;;;;;;;6.33;2.63;;;15.50;1.00;;;;;;5031724;28;20268;-62
2021/08/08 04:35:00;;;;;;;5.13;2.60;;;15.40;1.00;;;;;;5031401;28;20627;-62
2021/08/08 04:37:26;;;;;;;6.87;2.83;;;15.40;1.00;;;;;;5031623;28;20202;-61
2021/08/08 04:39:53;;;;;;;8.17;2.60;;;15.40;1.00;;;;;;5030285;28;20642;-62
2021/08/08 04:42:20;;;;;;;7.70;2.90;;;15.40;1.00;;;;;;5031143;28;20210;-62
2021/08/08 04:44:46;;;;;;;7.07;2.83;;;15.40;1.00;;;;;;5030984;28;20269;-62
2021/08/08 04:47:13;;;;;;;9.53;3.00;;;15.40;1.00;;;;;;5030989;28;20260;-61
2021/08/08 04:49:39;;;;;;;8.33;2.90;;;15.40;1.00;;;;;;5031322;28;20223;-62
2021/08/08 04:52:07;;;;;;;13.37;3.20;;;15.30;1.00;;;;;;5031209;28;20667;-62
2021/08/08 04:54:34;;;;;;;6.93;3.10;;;15.30;1.00;;;;;;5031177;28;20252;-62
2021/08/08 04:57:01;;;;;;;7.10;2.70;;;15.30;1.00;;;;;;5035782;28;20213;-62
2021/08/08 04:59:27;;;;;;;11.97;3.40;;;15.30;1.00;;;;;;5051070;28;20263;-62
2021/08/08 05:01:54;;;;;;;5.30;2.77;;;15.30;1.00;;;;;;5051329;28;20233;-61
2021/08/08 05:04:20;;;;;;;8.30;3.20;;;15.30;1.00;;;;;;5050927;28;20222;-62
2021/08/08 05:06:47;;;;;;;9.00;2.87;;;15.30;1.00;;;;;;5050790;28;20209;-62
2021/08/08 05:09:16;;;;;;;10.03;2.90;;;15.30;1.00;;;;;;5050948;28;20206;-62
2021/08/08 05:11:42;;;;;;;4.87;2.53;;;15.30;1.00;;;;;;5050934;28;20210;-62
2021/08/08 05:14:09;;;;;;;10.30;3.07;;;15.30;1.00;;;;;;5049134;28;20202;-62
2021/08/08 05:16:35;;;;;;;11.57;3.70;;;15.30;1.00;;;;;;5051004;28;20251;-62
2021/08/08 05:19:02;;;;;;;9.73;2.80;;;15.30;1.00;;;;;;5051002;28;20619;-61
2021/08/08 05:21:29;;;;;;;7.27;2.90;;;15.30;1.00;;;;;;5051032;28;20275;-64
2021/08/08 05:23:55;;;;;;;7.30;3.40;;;15.30;1.00;;;;;;5050386;28;20206;-64
2021/08/08 05:26:23;;;;;;;11.00;3.03;;;15.30;1.00;;;;;;5050669;28;20304;-64
2021/08/08 05:28:50;;;;;;;9.80;3.30;;;15.30;1.00;;;;;;5051822;28;20209;-61
2021/08/08 05:31:17;;;;;;;8.00;3.13;;;15.30;1.00;;;;;;5039094;28;20288;-62
2021/08/08 05:33:43;;;;;;;8.40;3.30;;;15.30;1.00;;;;;;5034609;28;20281;-62
2021/08/08 05:36:10;;;;;;;10.47;3.00;;;15.40;1.00;;;;;;5034395;28;20207;-61
2021/08/08 05:38:36;;;;;;;7.03;3.30;;;15.40;1.00;;;;;;5034104;28;20668;-62
2021/08/08 05:41:03;;;;;;;7.87;3.13;;;15.40;1.00;;;;;;5033981;28;20230;-62
2021/08/08 05:43:31;;;;;;;10.67;3.27;;;15.40;1.00;;;;;;5034493;28;20260;-62
2021/08/08 05:45:58;;;;;;;10.80;4.20;;;15.40;1.00;;;;;;5034549;28;20284;-62
2021/08/08 05:48:24;;;;;;;11.17;3.37;;;15.40;1.00;;;;;;5049492;28;20220;-61
2021/08/08 05:50:51;;;;;;;13.53;3.67;;;15.40;1.00;;;;;;5054085;28;20225;-62
2021/08/08 05:53:17;;;;;;;8.70;3.00;;;15.50;1.00;;;;;;5053986;28;20624;-62
2021/08/08 05:55:46;;;;;;;10.53;3.83;;;15.50;1.00;;;;;;5053463;28;20206;-62
2021/08/08 05:58:13;;;;;;;8.70;3.73;;;15.40;1.00;;;;;;5053911;28;20205;-62
2021/08/08 06:00:41;;;;;;;9.97;3.43;;;15.30;1.00;;;;;;5053811;28;20222;-62
2021/08/08 06:03:08;;;;;;;11.67;3.70;;;15.40;1.00;;;;;;5051372;28;20259;-62
2021/08/08 06:05:34;;;;;;;9.93;3.40;;;15.40;1.00;;;;;;5033795;28;20276;-61
2021/08/08 06:08:01;;;;;;;14.20;3.20;;;15.40;1.00;;;;;;5033965;28;20212;-61
2021/08/08 06:10:28;;;;;;;7.87;2.90;;;15.40;1.00;;;;;;5033238;28;20237;-62
2021/08/08 06:12:54;;;;;;;9.87;3.40;;;15.30;1.00;;;;;;5033794;28;20268;-62
2021/08/08 06:15:21;;;;;;;10.67;3.50;;;15.40;1.00;;;;;;5033604;28;20198;-61
2021/08/08 06:17:50;;;;;;;9.67;2.97;;;15.40;1.00;;;;;;5033686;28;20913;-62
2021/08/08 06:20:16;;;;;;;10.03;3.90;;;15.40;1.00;;;;;;5031971;28;20218;-62
2021/08/08 06:22:43;;;;;;;6.07;2.80;;;15.40;1.00;;;;;;5033426;28;20214;-62
2021/08/08 06:25:10;;;;;;;12.20;3.27;;;15.40;1.00;;;;;;5033147;28;20285;-62
2021/08/08 06:27:37;;;;;;;10.87;3.67;;;15.40;1.00;;;;;;5033543;28;20628;-62
2021/08/08 06:30:04;;;;;;;6.93;3.80;;;15.50;1.00;;;;;;5033316;28;20234;-61
2021/08/08 06:32:30;;;;;;;7.70;3.37;;;15.50;1.00;;;;;;5033334;28;20626;-62
2021/08/08 06:34:58;;;;;;;8.70;3.37;;;15.60;1.00;;;;;;5032190;28;20210;-62
2021/08/08 06:37:25;;;;;;;9.30;3.20;;;15.70;1.00;;;;;;5030798;28;20206;-62
2021/08/08 06:39:52;;;;;;;8.53;3.40;;;15.80;1.00;;;;;;5051592;28;20221;-61
2021/08/08 06:42:18;;;;;;;8.53;3.20;;;15.90;1.00;;;;;;5051980;28;20255;-63
2021/08/08 06:44:45;;;;;;;8.43;3.30;;;16.00;1.00;;;;;;5052969;28;20209;-63
2021/08/08 06:47:11;;;;;;;8.50;2.90;;;16.00;1.00;;;;;;5053451;28;20249;-64
2021/08/08 06:49:38;;;;;;;13.53;3.23;;;15.90;1.00;;;;;;5052869;28;20230;-63
2021/08/08 06:52:06;;;;;;;8.57;3.17;;;15.90;1.00;;;;;;5052445;28;20201;-64
2021/08/08 06:54:33;;;;;;;9.53;2.97;;;15.90;1.00;;;;;;5040534;28;20221;-62
2021/08/08 06:57:00;;;;;;;15.87;3.20;;;15.90;1.00;;;;;;5032866;28;20210;-62
2021/08/08 06:59:30;;;;;;;6.97;2.93;;;15.90;1.00;;;;;;5032665;28;20675;-62
2021/08/08 07:01:56;;;;;;;9.73;3.40;;;15.90;1.00;;;;;;5032927;28;20268;-61
2021/08/08 07:04:23;;;;;;;9.23;3.30;;;15.90;1.00;;;;;;5032322;28;20625;-61
2021/08/08 07:06:50;;;;;;;11.33;3.50;;;15.80;1.00;;;;;;5032759;28;20238;-62
2021/08/08 07:09:18;;;;;;;4.73;2.53;;;15.80;1.00;;;;;;5032785;28;20209;-62
2021/08/08 07:11:44;;;;;;;7.03;3.10;;;15.80;1.00;;;;;;5030840;28;20241;-61
2021/08/08 07:14:11;;;;;;;5.90;2.60;;;15.80;1.00;;;;;;5032319;28;20686;-62
2021/08/08 07:16:38;;;;;;;7.83;3.23;;;15.70;1.00;;;;;;5032424;28;20206;-62
2021/08/08 07:19:04;;;;;;;8.27;3.30;;;15.80;1.00;;;;;;5032441;28;20207;-67
2021/08/08 07:21:40;;;;;;;9.03;3.47;;;15.80;1.00;;;;;;5038841;28;20221;-70
2021/08/08 07:24:06;;;;;;;8.80;3.10;;;15.80;1.00;;;;;;5051681;28;20209;-68
2021/08/08 07:26:34;;;;;;;7.90;3.10;;;15.90;1.00;;;;;;5052075;28;20225;-68
2021/08/08 07:29:01;;;;;;;6.83;2.90;;;16.10;1.00;;;;;;5031336;28;20207;-68
2021/08/08 07:31:28;;;;;;;13.53;3.07;;;16.10;1.00;;;;;;5031336;28;20666;-68
2021/08/08 07:33:54;;;;;;;7.73;2.77;;;16.20;1.00;;;;;;5031914;28;20268;-64
2021/08/08 07:36:21;;;;;;;7.67;3.03;;;16.20;1.00;;;;;;5031658;28;20206;-68
2021/08/08 07:38:48;;;;;;;12.57;3.17;;;16.30;1.00;;;;;;5032205;28;20206;-67
2021/08/08 07:41:14;;;;;;;8.17;3.23;;;16.30;1.00;;;;;;5031596;28;20226;-67
2021/08/08 07:43:42;;;;;;;9.60;3.00;;;16.40;1.00;;;;;;5032999;28;20253;-67
2021/08/08 07:46:09;;;;;;;8.50;2.63;;;16.50;1.00;;;;;;5031510;28;20272;-67
2021/08/08 07:48:35;;;;;;;9.77;3.07;;;16.50;1.00;;;;;;5032534;28;20276;-67
2021/08/08 07:51:02;;;;;;;8.47;2.60;;;16.50;1.00;;;;;;5048287;28;20291;-70
2021/08/08 07:53:29;;;;;;;5.93;2.73;;;16.60;1.00;;;;;;5064439;28;20202;-71
2021/08/08 07:55:56;;;;;;;10.03;3.30;;;16.60;1.00;;;;;;5054227;28;20663;-70
2021/08/08 07:58:23;;;;;;;6.30;2.60;;;16.80;1.00;;;;;;5053223;28;20631;-70
2021/08/08 08:00:51;;;;;;;7.30;2.97;;;16.90;1.00;;;;;;5049904;28;20229;-72
2021/08/08 08:03:18;;;;;;;10.03;3.47;;;17.00;1.00;;;;;;5051999;28;20206;-69
2021/08/08 08:05:44;;;;;;;12.73;3.10;;;17.00;1.00;;;;;;5051854;28;20225;-69
2021/08/08 08:08:11;;;;;;;11.87;3.27;;;17.20;1.00;;;;;;5051601;28;20205;-68
2021/08/08 08:10:38;;;;;;;7.50;2.50;;;17.40;1.00;;;;;;5051357;28;20898;-70
2021/08/08 08:13:04;;;;;;;5.63;2.87;;;17.70;1.00;;;;;;5050920;28;20206;-68
2021/08/08 08:15:31;;;;;;;8.63;2.97;;;17.70;1.00;;;;;;5050797;28;20210;-67
2021/08/08 08:17:59;;;;;;;9.03;3.10;;;17.50;1.00;;;;;;5050308;28;20611;-68
2021/08/08 08:20:26;;;;;;;8.10;2.90;;;17.30;1.00;;;;;;5052483;28;20230;-67
2021/08/08 08:22:53;;;;;;;9.20;2.80;;;17.20;1.00;;;;;;5051048;28;20198;-69
2021/08/08 08:25:19;;;;;;;9.40;2.63;;;17.20;1.00;;;;;;5050856;28;20232;-63
2021/08/08 08:27:47;;;;;;;11.67;3.13;;;17.20;1.00;;;;;;5050548;28;20209;-69
2021/08/08 08:30:14;;;;;;;7.33;2.50;;;17.10;1.00;;;;;;5050762;28;20236;-63
2021/08/08 08:32:40;;;;;;;9.70;2.87;;;17.10;1.00;;;;;;5051120;28;20209;-64
2021/08/08 08:35:10;;;;;;;9.03;2.53;;;17.10;1.00;;;;;;5049883;28;20212;-63
2021/08/08 08:37:37;;;;;;;6.97;2.83;;;17.20;1.00;;;;;;5051386;28;20251;-63
2021/08/08 08:40:06;;;;;;;9.07;2.97;;;17.10;1.00;;;;;;5051273;28;20226;-63
2021/08/08 08:42:35;;;;;;;9.63;2.50;;;17.10;1.00;;;;;;5050771;28;20662;-63
2021/08/08 08:45:02;;;;;;;9.83;2.80;;;17.50;1.00;;;;;;5051200;28;20209;-63
2021/08/08 08:47:30;;;;;;;10.40;2.70;;;17.80;1.00;;;;;;5051240;28;20229;-63
2021/08/08 08:49:59;;;;;;;5.47;2.73;;;18.20;1.00;;;;;;5051113;28;20229;-63
2021/08/08 08:52:28;;;;;;;9.43;2.53;;;18.30;1.00;;;;;;5051282;28;20263;-62
2021/08/08 08:54:56;;;;;;;8.53;3.00;;;18.20;1.00;;;;;;5048929;28;20557;-63
2021/08/08 08:57:23;;;;;;;12.33;3.10;;;18.30;1.00;;;;;;5051204;28;20272;-63
2021/08/08 08:59:51;;;;;;;9.23;2.87;;;18.30;1.00;;;;;;5050921;28;20706;-63
2021/08/08 09:02:18;;;;;;;6.57;2.40;;;18.30;1.00;;;;;;5051159;28;20205;-63
2021/08/08 09:04:44;;;;;;;10.17;2.80;;;18.40;1.00;;;;;;5053020;28;20251;-63
2021/08/08 09:07:11;;;;;;;8.83;2.60;;;18.30;1.00;;;;;;5054983;28;20291;-64
2021/08/08 09:09:42;;;;;;;12.37;2.40;;;18.40;1.00;;;;;;5052545;28;20226;-63
2021/08/08 09:12:09;;;;;;;7.80;2.60;;;18.30;1.00;;;;;;5054210;28;20210;-64
2021/08/08 09:14:37;;;;;;;9.93;2.67;;;18.30;1.00;;;;;;5054353;28;20201;-63
2021/08/08 09:17:04;;;;;;;6.77;2.40;;;18.00;99.90;;;;;;5054801;28;20209;-63
2021/08/08 09:19:32;;;;;;;6.80;2.23;;;18.00;99.90;;;;;;5054618;28;20275;-63
2021/08/08 09:21:59;;;;;;;9.53;2.50;;;17.90;99.90;;;;;;5054379;28;20255;-63
2021/08/08 09:24:28;;;;;;;6.80;2.60;;;18.00;99.90;;;;;;5054293;28;20205;-63
2021/08/08 09:27:06;;;;;;;7.43;2.43;;;18.10;99.90;;;;;;5052416;28;20283;-64
2021/08/08 09:29:33;;;;;;;8.17;2.53;;;18.20;99.90;;;;;;5054660;28;20233;-63
2021/08/08 09:32:01;;;;;;;10.13;2.40;;;18.60;99.90;;;;;;5054362;28;20221;-63
2021/08/08 09:34:30;;;;;;;7.83;2.43;;;18.60;99.90;;;;;;5053573;28;20627;-63
2021/08/08 09:36:59;;;;;;;8.67;2.40;;;18.70;99.90;;;;;;5054655;28;20236;-63
2021/08/08 09:39:28;;;;;;;10.97;2.70;;;18.70;99.90;;;;;;5054312;28;20210;-63
2021/08/08 09:42:09;;;;;;;7.73;2.33;;;18.50;99.90;;;;;;5054436;28;20213;-63
2021/08/08 09:44:37;;;;;;;5.23;2.40;;;18.20;99.90;;;;;;5051850;28;20206;-63
2021/08/08 09:47:04;;;;;;;12.47;2.83;;;18.00;99.90;;;;;;5053901;28;20221;-63
2021/08/08 09:49:31;;;;;;;8.13;2.60;;;18.10;99.90;;;;;;5054295;28;20283;-63
2021/08/08 09:51:58;;;;;;;8.33;2.60;;;18.20;99.90;;;;;;5053988;28;20307;-63
2021/08/08 09:54:34;;;;;;;10.53;2.60;;;18.50;99.90;;;;;;5053553;28;20206;-63
2021/08/08 09:57:01;;;;;;;11.90;3.13;;;18.60;99.90;;;;;;5053688;28;20251;-63
2021/08/08 09:59:29;;;;;;;7.97;2.40;;;18.60;99.90;;;;;;5053759;28;20271;-63
2021/08/08 10:01:57;;;;;;;8.43;2.27;;;18.40;99.90;;;;;;5053976;28;20206;-63
2021/08/08 10:04:24;;;;;;;7.80;2.50;;;18.40;99.90;;;;;;5053861;28;20201;-63
2021/08/08 10:06:53;;;;;;;6.67;2.30;;;18.50;99.90;;;;;;5053962;28;20639;-63
2021/08/08 10:09:20;;;;;;;11.33;2.37;;;18.40;99.90;;;;;;5053807;28;20263;-63
2021/08/08 10:11:51;;;;;;;8.70;2.43;;;18.50;99.90;;;;;;5053611;28;20227;-63
2021/08/08 10:14:19;;;;;;;8.57;2.50;;;18.60;99.90;;;;;;5052944;28;20194;-64
2021/08/08 10:16:48;;;;;;;8.57;2.30;;;18.80;99.90;;;;;;5053684;28;20217;-63
2021/08/08 10:19:19;;;;;;;11.47;2.67;;;18.90;99.90;;;;;;5053689;28;20210;-63
2021/08/08 10:21:47;;;;;;;11.73;2.60;;;19.20;99.90;;;;;;5053717;28;20297;-63
2021/08/08 10:24:16;;;;;;;9.57;2.93;;;19.20;99.90;;;;;;5052984;28;20212;-63
2021/08/08 10:26:43;;;;;;;9.37;2.40;;;18.70;99.90;;;;;;5053109;28;20229;-63
2021/08/08 10:29:10;;;;;;;10.13;2.23;;;18.50;99.90;;;;;;5053446;28;20260;-63
2021/08/08 10:31:37;;;;;;;11.00;2.40;;;18.40;99.90;;;;;;5053524;28;20279;-63
2021/08/08 10:34:05;;;;;;;11.77;2.87;;;18.50;99.90;;;;;;5053021;28;20210;-63
2021/08/08 10:36:34;;;;;;;6.53;2.33;;;18.80;99.90;;;;;;5053148;28;20308;-63
2021/08/08 10:39:09;;;;;;;15.13;2.80;;;19.00;99.90;;;;;;5052900;28;20255;-63
2021/08/08 10:41:36;;;;;;;7.97;2.70;;;19.00;99.90;;;;;;5053424;28;20255;-63
2021/08/08 10:44:07;;;;;;;6.30;2.13;;;19.20;99.90;;;;;;5052737;28;20205;-62
2021/08/08 10:46:44;;;;;;;5.43;2.17;;;19.40;99.90;;;;;;5052882;28;20238;-62
2021/08/08 10:49:12;;;;;;;7.03;2.03;;;19.30;99.90;;;;;;5053026;28;20209;-62
2021/08/08 10:51:39;;;;;;;6.43;2.27;;;19.20;99.90;;;;;;5052568;28;20729;-62
2021/08/08 10:54:07;;;;;;;4.83;2.10;;;19.10;99.90;;;;;;5053120;28;20206;-62
2021/08/08 10:56:44;;;;;;;3.47;1.33;;;19.10;99.90;;;;;;5052750;28;20213;-62
2021/08/08 10:59:15;;;;;;;5.83;1.80;;;18.70;99.90;;;;;;5052867;28;20206;-62
2021/08/08 11:01:42;;;;;;;8.80;1.80;;;18.80;99.90;;;;;;5052771;28;20728;-62
2021/08/08 11:04:09;;;;;;;5.83;2.00;;;18.90;99.90;;;;;;5052510;28;20202;-64
2021/08/08 11:06:38;;;;;;;7.27;1.80;;;19.00;99.90;;;;;;5052591;28;20229;-64
2021/08/08 11:09:06;;;;;;;5.97;2.03;;;19.10;99.90;;;;;;5052868;28;20235;-64
2021/08/08 11:11:34;;;;;;;5.73;2.03;;;19.40;99.90;;;;;;5052729;28;20230;-64
2021/08/08 11:14:10;;;;;;;12.20;5.13;;;19.60;99.90;;;;;;5048980;28;20209;-64
2021/08/08 11:16:37;;;;;;;7.97;1.80;;;19.70;99.90;;;;;;5051612;28;20208;-64
2021/08/08 11:19:04;;;;;;;9.17;1.93;;;19.90;99.90;;;;;;5052331;28;20263;-64
2021/08/08 11:21:31;;;;;;;6.23;2.20;;;20.20;99.90;;;;;;5052364;28;20225;-63
2021/08/08 11:24:01;;;;;;;9.00;2.00;;;20.40;99.90;;;;;;5051667;28;20259;-68
2021/08/08 11:26:29;;;;;;;5.20;1.60;;;20.00;99.90;;;;;;5051131;28;20263;-68
2021/08/08 11:28:59;;;;;;;7.40;2.07;;;19.80;99.90;;;;;;5052178;28;20209;-69
2021/08/08 11:31:27;;;;;;;8.23;2.00;;;19.90;99.90;;;;;;5051992;28;20233;-71
2021/08/08 11:33:58;;;;;;;6.00;2.13;;;19.80;99.90;;;;;;5051620;28;20658;-69
2021/08/08 11:36:30;;;;;;;7.53;2.13;;;19.80;99.90;;;;;;5051320;28;20217;-67
2021/08/08 11:38:59;;;;;;;7.30;2.00;;;19.80;99.90;;;;;;5051914;28;20626;-67
2021/08/08 11:41:28;;;;;;;6.47;1.43;;;19.90;99.90;;;;;;5051256;28;20230;-67
2021/08/08 11:44:09;;;;;;;6.57;2.00;;;19.70;99.90;;;;;;5051600;28;20256;-67
2021/08/08 11:46:37;;;;;;;6.73;1.70;;;19.30;99.90;;;;;;5050476;28;20717;-68
2021/08/08 11:49:15;;;;;;;8.87;2.20;;;19.30;99.90;;;;;;5052594;28;20209;-68
2021/08/08 11:51:41;;;;;;;6.10;2.20;;;19.20;99.90;;;;;;5052012;28;20201;-67
2021/08/08 11:54:10;;;;;;;6.77;1.97;;;19.10;99.90;;;;;;5051280;28;20281;-68
2021/08/08 11:56:37;;;;;;;7.70;1.80;;;19.00;99.90;;;;;;5052782;28;20228;-68
2021/08/08 11:59:03;;;;;;;7.20;2.07;;;18.90;99.90;;;;;;5051961;28;20213;-68
2021/08/08 12:01:30;;;;;;;5.47;1.80;;;18.80;99.90;;;;;;5051571;28;20225;-68
2021/08/08 12:04:07;;;;;;;3.67;1.70;;;18.80;99.90;;;;;;5049669;28;20209;-68
2021/08/08 12:06:35;;;;;;;6.40;1.70;;;18.80;99.90;;;;;;5050933;28;20474;-67
2021/08/08 12:09:01;;;;;;;4.60;1.40;;;18.90;99.90;;;;;;5051637;28;20294;-65
2021/08/08 12:11:29;;;;;;;6.60;2.37;;;18.90;99.90;;;;;;5050918;28;20690;-64
2021/08/08 12:14:04;;;;;;;4.97;2.00;;;18.90;99.90;;;;;;5050353;28;20270;-65
2021/08/08 12:16:34;;;;;;;7.77;2.17;;;18.90;99.90;;;;;;5050979;28;20204;-68
2021/08/08 12:19:01;;;;;;;4.20;1.50;;;18.80;99.90;;;;;;5050511;28;20205;-66
2021/08/08 12:21:33;;;;;;;4.73;1.70;;;19.00;99.90;;;;;;5040765;28;20233;-68
2021/08/08 12:24:07;;;;;;;6.00;1.60;;;19.10;99.90;;;;;;5031199;28;20206;-67
2021/08/08 12:26:38;;;;;;;5.27;2.00;;;19.20;99.90;;;;;;5030940;28;20206;-67
2021/08/08 12:29:06;;;;;;;7.30;1.80;;;19.40;99.90;;;;;;5030831;28;20579;-67
2021/08/08 12:31:40;;;;;;;6.77;1.83;;;19.60;99.90;;;;;;5030720;28;20238;-66
2021/08/08 12:34:09;;;;;;;4.23;1.93;;;19.80;99.90;;;;;;5030801;28;20913;-66
2021/08/08 12:36:38;;;;;;;4.13;1.70;;;20.10;99.90;;;;;;5031111;28;20590;-66
2021/08/08 12:39:05;;;;;;;6.27;1.70;;;20.30;99.90;;;;;;5032737;28;20206;-66
2021/08/08 12:41:37;;;;;;;4.80;1.63;;;20.30;99.90;;;;;;5034767;28;20230;-65
2021/08/08 12:44:04;;;;;;;5.33;2.00;;;20.20;99.90;;;;;;5034421;28;20260;-67
2021/08/08 12:46:33;;;;;;;4.63;1.77;;;19.90;99.90;;;;;;5035329;28;20284;-68
2021/08/08 12:49:01;;;;;;;4.07;1.20;;;19.80;99.90;;;;;;5035218;28;20202;-66
2021/08/08 12:51:28;;;;;;;6.57;1.77;;;19.90;99.90;;;;;;5034510;28;20226;-66
2021/08/08 12:53:54;;;;;;;4.80;1.70;;;20.10;99.90;;;;;;5034725;28;20587;-66